sensor_id;sensor_type;location;lat;lon;timestamp;pressure;altitude;pressure_sealevel;temperature;humidity
63691;BME280;49837;57.280;27.070;2023-02-03T00:00:28;99579.89;;;-3.61;93.42
63691;BME280;49837;57.280;27.070;2023-02-03T00:01:28;99582.75;;;-3.66;93.47
63691;BME280;49837;57.280;27.070;2023-02-03T00:02:29;99579.09;;;-3.7;93.06
63691;BME280;49837;57.280;27.070;2023-02-03T00:03:29;99588.2;;;-3.71;92.95
63691;BME280;49837;57.280;27.070;2023-02-03T00:04:29;99588.14;;;-3.74;93.04
63691;BME280;49837;57.280;27.070;2023-02-03T00:05:30;99593.03;;;-3.78;93.37
63691;BME280;49837;57.280;27.070;2023-02-03T00:06:31;99587.08;;;-3.79;93.45
63691;BME280;49837;57.280;27.070;2023-02-03T00:07:31;99585.17;;;-3.81;93.34
63691;BME280;49837;57.280;27.070;2023-02-03T00:08:31;99592.7;;;-3.83;93.04
63691;BME280;49837;57.280;27.070;2023-02-03T00:09:32;99589.39;;;-3.82;92.57
63691;BME280;49837;57.280;27.070;2023-02-03T00:10:33;99597.2;;;-3.86;92.5
63691;BME280;49837;57.280;27.070;2023-02-03T00:11:33;99586.12;;;-3.86;92.46
63691;BME280;49837;57.280;27.070;2023-02-03T00:12:33;99595.97;;;-3.87;92.27
63691;BME280;49837;57.280;27.070;2023-02-03T00:13:34;99593.93;;;-3.92;92.27
63691;BME280;49837;57.280;27.070;2023-02-03T00:14:34;99594.73;;;-3.97;92.28
63691;BME280;49837;57.280;27.070;2023-02-03T00:15:34;99594.14;;;-4.01;92.42
63691;BME280;49837;57.280;27.070;2023-02-03T00:16:35;99593.68;;;-3.95;92.58
63691;BME280;49837;57.280;27.070;2023-02-03T00:17:35;99594.29;;;-4.02;92.61
63691;BME280;49837;57.280;27.070;2023-02-03T00:18:35;99587.47;;;-4.1;92.85
63691;BME280;49837;57.280;27.070;2023-02-03T00:19:36;99593.55;;;-4.06;93.12
63691;BME280;49837;57.280;27.070;2023-02-03T00:20:36;99601.97;;;-4.14;93.1
63691;BME280;49837;57.280;27.070;2023-02-03T00:21:36;99597.77;;;-4.16;92.9
63691;BME280;49837;57.280;27.070;2023-02-03T00:22:37;99603.07;;;-4.19;92.79
63691;BME280;49837;57.280;27.070;2023-02-03T00:23:37;99603.07;;;-4.19;93.15
63691;BME280;49837;57.280;27.070;2023-02-03T00:24:38;99602.19;;;-4.2;93.29
63691;BME280;49837;57.280;27.070;2023-02-03T00:25:39;99606.95;;;-4.24;93.37
63691;BME280;49837;57.280;27.070;2023-02-03T00:26:41;99603.63;;;-4.27;93.41
63691;BME280;49837;57.280;27.070;2023-02-03T00:27:39;99607.48;;;-4.3;93.47
63691;BME280;49837;57.280;27.070;2023-02-03T00:28:40;99602.59;;;-4.42;93.58
63691;BME280;49837;57.280;27.070;2023-02-03T00:29:40;99606.08;;;-4.4;93.7
63691;BME280;49837;57.280;27.070;2023-02-03T00:30:40;99605.8;;;-4.4;93.89
63691;BME280;49837;57.280;27.070;2023-02-03T00:31:41;99603.19;;;-4.42;93.9
63691;BME280;49837;57.280;27.070;2023-02-03T00:32:41;99607.42;;;-4.44;93.98
63691;BME280;49837;57.280;27.070;2023-02-03T00:33:41;99609.76;;;-4.5;93.94
63691;BME280;49837;57.280;27.070;2023-02-03T00:34:42;99606.59;;;-4.46;94.18
63691;BME280;49837;57.280;27.070;2023-02-03T00:35:42;99612.86;;;-4.46;94.07
63691;BME280;49837;57.280;27.070;2023-02-03T00:36:43;99610.12;;;-4.55;94.08
63691;BME280;49837;57.280;27.070;2023-02-03T00:37:43;99608.45;;;-4.57;94.34
63691;BME280;49837;57.280;27.070;2023-02-03T00:38:43;99613.2;;;-4.57;94.23
63691;BME280;49837;57.280;27.070;2023-02-03T00:39:44;99615.98;;;-4.63;94.19
63691;BME280;49837;57.280;27.070;2023-02-03T00:40:53;99616.48;;;-4.63;94.28
63691;BME280;49837;57.280;27.070;2023-02-03T00:41:47;99628.45;;;-4.66;94.32
63691;BME280;49837;57.280;27.070;2023-02-03T00:42:46;99616.95;;;-4.7;94.33
63691;BME280;49837;57.280;27.070;2023-02-03T00:43:48;99631.98;;;-4.71;94.54
63691;BME280;49837;57.280;27.070;2023-02-03T00:44:47;99628.46;;;-4.72;94.57
63691;BME280;49837;57.280;27.070;2023-02-03T00:45:47;99636.73;;;-4.73;94.74
63691;BME280;49837;57.280;27.070;2023-02-03T00:46:48;99634.34;;;-4.78;94.71
63691;BME280;49837;57.280;27.070;2023-02-03T00:47:48;99632.16;;;-4.77;94.82
63691;BME280;49837;57.280;27.070;2023-02-03T00:48:48;99643.43;;;-4.82;94.95
63691;BME280;49837;57.280;27.070;2023-02-03T00:49:49;99641.95;;;-4.87;94.75
63691;BME280;49837;57.280;27.070;2023-02-03T00:50:50;99639.62;;;-4.89;94.89
63691;BME280;49837;57.280;27.070;2023-02-03T00:51:51;99634.98;;;-4.89;95.04
63691;BME280;49837;57.280;27.070;2023-02-03T00:52:51;99638.2;;;-4.87;95.02
63691;BME280;49837;57.280;27.070;2023-02-03T00:53:51;99640.48;;;-4.87;94.86
63691;BME280;49837;57.280;27.070;2023-02-03T00:54:52;99638.86;;;-4.9;94.82
63691;BME280;49837;57.280;27.070;2023-02-03T00:55:52;99644.25;;;-5.06;94.57
63691;BME280;49837;57.280;27.070;2023-02-03T00:56:52;99640.27;;;-5.09;94.65
63691;BME280;49837;57.280;27.070;2023-02-03T00:57:53;99642.52;;;-5.1;94.74
63691;BME280;49837;57.280;27.070;2023-02-03T00:58:53;99644.37;;;-5.08;94.92
63691;BME280;49837;57.280;27.070;2023-02-03T00:59:54;99639.73;;;-5.08;94.91
63691;BME280;49837;57.280;27.070;2023-02-03T01:00:54;99641.73;;;-5.15;94.84
63691;BME280;49837;57.280;27.070;2023-02-03T01:01:54;99644.37;;;-5.14;94.88
63691;BME280;49837;57.280;27.070;2023-02-03T01:02:55;99641.47;;;-5.11;95.0
63691;BME280;49837;57.280;27.070;2023-02-03T01:03:55;99644.27;;;-5.12;94.98
63691;BME280;49837;57.280;27.070;2023-02-03T01:04:56;99642.72;;;-5.16;95.0
63691;BME280;49837;57.280;27.070;2023-02-03T01:05:56;99648.11;;;-5.14;94.98
63691;BME280;49837;57.280;27.070;2023-02-03T01:06:59;99651.61;;;-5.18;94.83
63691;BME280;49837;57.280;27.070;2023-02-03T01:08:00;99645.87;;;-5.2;94.89
63691;BME280;49837;57.280;27.070;2023-02-03T01:09:01;99653.05;;;-5.22;94.82
63691;BME280;49837;57.280;27.070;2023-02-03T01:09:59;99656.11;;;-5.23;94.82
63691;BME280;49837;57.280;27.070;2023-02-03T01:11:05;99660.53;;;-5.22;94.81
63691;BME280;49837;57.280;27.070;2023-02-03T01:12:04;99655.08;;;-5.32;94.82
63691;BME280;49837;57.280;27.070;2023-02-03T01:13:03;99653.3;;;-5.32;95.0
63691;BME280;49837;57.280;27.070;2023-02-03T01:14:04;99655.92;;;-5.3;94.98
63691;BME280;49837;57.280;27.070;2023-02-03T01:15:05;99655.59;;;-5.34;94.8
63691;BME280;49837;57.280;27.070;2023-02-03T01:16:14;99658.14;;;-5.36;94.64
63691;BME280;49837;57.280;27.070;2023-02-03T01:17:06;99656.56;;;-5.46;94.52
63691;BME280;49837;57.280;27.070;2023-02-03T01:18:07;99661.12;;;-5.47;94.65
63691;BME280;49837;57.280;27.070;2023-02-03T01:19:07;99655.32;;;-5.41;94.7
63691;BME280;49837;57.280;27.070;2023-02-03T01:20:09;99651.91;;;-5.47;94.58
63691;BME280;49837;57.280;27.070;2023-02-03T01:21:10;99662.78;;;-5.6;94.52
63691;BME280;49837;57.280;27.070;2023-02-03T01:22:08;99657.95;;;-5.64;94.58
63691;BME280;49837;57.280;27.070;2023-02-03T01:23:09;99660.06;;;-5.64;94.62
63691;BME280;49837;57.280;27.070;2023-02-03T01:24:09;99657.31;;;-5.61;94.67
63691;BME280;49837;57.280;27.070;2023-02-03T01:25:09;99655.37;;;-5.55;94.61
63691;BME280;49837;57.280;27.070;2023-02-03T01:26:13;99659.7;;;-5.6;94.43
63691;BME280;49837;57.280;27.070;2023-02-03T01:27:10;99654.96;;;-5.55;94.26
63691;BME280;49837;57.280;27.070;2023-02-03T01:28:11;99653.98;;;-5.58;94.08
63691;BME280;49837;57.280;27.070;2023-02-03T01:29:11;99659.45;;;-5.63;94.0
63691;BME280;49837;57.280;27.070;2023-02-03T01:30:12;99649.61;;;-5.7;94.06
63691;BME280;49837;57.280;27.070;2023-02-03T01:31:26;99649.77;;;-5.73;93.92
63691;BME280;49837;57.280;27.070;2023-02-03T01:32:14;99645.14;;;-5.84;93.92
63691;BME280;49837;57.280;27.070;2023-02-03T01:33:14;99645.0;;;-5.86;94.07
63691;BME280;49837;57.280;27.070;2023-02-03T01:34:15;99644.66;;;-5.82;94.18
63691;BME280;49837;57.280;27.070;2023-02-03T01:35:15;99642.23;;;-5.9;94.02
63691;BME280;49837;57.280;27.070;2023-02-03T01:36:16;99645.16;;;-5.9;94.23
63691;BME280;49837;57.280;27.070;2023-02-03T01:37:16;99643.7;;;-5.9;94.38
63691;BME280;49837;57.280;27.070;2023-02-03T01:38:16;99642.34;;;-5.88;94.38
63691;BME280;49837;57.280;27.070;2023-02-03T01:39:17;99646.41;;;-5.88;94.38
63691;BME280;49837;57.280;27.070;2023-02-03T01:40:17;99646.91;;;-5.91;94.31
63691;BME280;49837;57.280;27.070;2023-02-03T01:41:20;99644.78;;;-5.89;94.46
63691;BME280;49837;57.280;27.070;2023-02-03T01:42:18;99646.55;;;-5.84;94.46
63691;BME280;49837;57.280;27.070;2023-02-03T01:43:35;99646.41;;;-5.97;94.15
63691;BME280;49837;57.280;27.070;2023-02-03T01:45:26;99649.62;;;-6.11;94.37
63691;BME280;49837;57.280;27.070;2023-02-03T01:46:38;99641.22;;;-6.07;94.5
63691;BME280;49837;57.280;27.070;2023-02-03T01:47:38;99642.95;;;-6.09;94.34
63691;BME280;49837;57.280;27.070;2023-02-03T01:48:31;99641.67;;;-5.99;94.4
63691;BME280;49837;57.280;27.070;2023-02-03T01:49:34;99646.84;;;-6.08;94.11
63691;BME280;49837;57.280;27.070;2023-02-03T01:50:35;99645.59;;;-6.21;94.14
63691;BME280;49837;57.280;27.070;2023-02-03T01:51:34;99645.92;;;-6.23;94.35
63691;BME280;49837;57.280;27.070;2023-02-03T01:52:34;99645.87;;;-6.26;94.56
63691;BME280;49837;57.280;27.070;2023-02-03T01:53:34;99646.88;;;-6.16;94.74
63691;BME280;49837;57.280;27.070;2023-02-03T01:54:38;99649.89;;;-6.18;94.64
63691;BME280;49837;57.280;27.070;2023-02-03T01:55:43;99657.92;;;-6.22;94.68
63691;BME280;49837;57.280;27.070;2023-02-03T01:56:40;99664.02;;;-6.13;94.71
63691;BME280;49837;57.280;27.070;2023-02-03T01:58:40;99668.46;;;-6.03;94.62
63691;BME280;49837;57.280;27.070;2023-02-03T01:59:41;99662.26;;;-6.04;94.37
63691;BME280;49837;57.280;27.070;2023-02-03T02:00:42;99669.39;;;-6.07;94.23
63691;BME280;49837;57.280;27.070;2023-02-03T02:01:41;99670.44;;;-6.02;94.26
63691;BME280;49837;57.280;27.070;2023-02-03T02:02:43;99668.36;;;-5.96;94.19
63691;BME280;49837;57.280;27.070;2023-02-03T02:03:47;99665.7;;;-6.03;94.04
63691;BME280;49837;57.280;27.070;2023-02-03T02:05:53;99673.23;;;-6.05;94.03
63691;BME280;49837;57.280;27.070;2023-02-03T02:06:55;99667.58;;;-6.08;94.0
63691;BME280;49837;57.280;27.070;2023-02-03T02:07:55;99671.59;;;-6.06;94.08
63691;BME280;49837;57.280;27.070;2023-02-03T02:08:56;99668.79;;;-5.98;94.17
63691;BME280;49837;57.280;27.070;2023-02-03T02:09:55;99666.77;;;-5.98;94.0
63691;BME280;49837;57.280;27.070;2023-02-03T02:10:56;99667.89;;;-5.9;93.97
63691;BME280;49837;57.280;27.070;2023-02-03T02:11:55;99663.52;;;-5.86;93.83
63691;BME280;49837;57.280;27.070;2023-02-03T02:12:59;99668.42;;;-5.86;93.84
63691;BME280;49837;57.280;27.070;2023-02-03T02:14:01;99667.13;;;-5.91;93.72
63691;BME280;49837;57.280;27.070;2023-02-03T02:14:59;99667.81;;;-5.93;93.83
63691;BME280;49837;57.280;27.070;2023-02-03T02:40:24;99694.53;;;-5.7;94.08
63691;BME280;49837;57.280;27.070;2023-02-03T02:41:19;99692.23;;;-5.68;94.31
63691;BME280;49837;57.280;27.070;2023-02-03T02:46:19;99681.16;;;-5.65;94.67
63691;BME280;49837;57.280;27.070;2023-02-03T02:47:18;99682.95;;;-5.62;94.34
63691;BME280;49837;57.280;27.070;2023-02-03T02:48:26;99686.53;;;-5.62;94.13
63691;BME280;49837;57.280;27.070;2023-02-03T02:49:25;99684.98;;;-5.62;94.13
63691;BME280;49837;57.280;27.070;2023-02-03T02:50:25;99680.98;;;-5.63;93.97
63691;BME280;49837;57.280;27.070;2023-02-03T02:51:28;99680.55;;;-5.61;93.78
63691;BME280;49837;57.280;27.070;2023-02-03T02:52:29;99685.38;;;-5.57;93.64
63691;BME280;49837;57.280;27.070;2023-02-03T02:53:31;99687.12;;;-5.61;93.66
63691;BME280;49837;57.280;27.070;2023-02-03T02:54:31;99685.31;;;-5.59;93.77
63691;BME280;49837;57.280;27.070;2023-02-03T02:55:31;99685.0;;;-5.52;93.78
63691;BME280;49837;57.280;27.070;2023-02-03T02:56:31;99689.42;;;-5.48;93.67
63691;BME280;49837;57.280;27.070;2023-02-03T02:57:33;99692.5;;;-5.51;93.35
63691;BME280;49837;57.280;27.070;2023-02-03T02:58:34;99690.27;;;-5.51;93.31
63691;BME280;49837;57.280;27.070;2023-02-03T02:59:33;99682.3;;;-5.45;93.24
63691;BME280;49837;57.280;27.070;2023-02-03T03:00:34;99685.47;;;-5.44;93.06
63691;BME280;49837;57.280;27.070;2023-02-03T03:01:34;99683.95;;;-5.43;92.84
63691;BME280;49837;57.280;27.070;2023-02-03T03:02:35;99683.41;;;-5.46;93.04
63691;BME280;49837;57.280;27.070;2023-02-03T03:03:35;99680.08;;;-5.48;92.9
63691;BME280;49837;57.280;27.070;2023-02-03T03:04:35;99679.1;;;-5.45;92.81
63691;BME280;49837;57.280;27.070;2023-02-03T03:05:36;99680.88;;;-5.4;92.68
63691;BME280;49837;57.280;27.070;2023-02-03T03:07:47;99680.55;;;-5.37;92.79
63691;BME280;49837;57.280;27.070;2023-02-03T03:09:53;99674.72;;;-5.35;92.3
63691;BME280;49837;57.280;27.070;2023-02-03T03:10:46;99671.36;;;-5.33;92.13
63691;BME280;49837;57.280;27.070;2023-02-03T03:11:52;99670.52;;;-5.31;92.02
63691;BME280;49837;57.280;27.070;2023-02-03T03:12:54;99674.59;;;-5.28;91.86
63691;BME280;49837;57.280;27.070;2023-02-03T03:13:54;99672.99;;;-5.21;91.68
63691;BME280;49837;57.280;27.070;2023-02-03T03:14:57;99673.23;;;-5.24;91.54
63691;BME280;49837;57.280;27.070;2023-02-03T03:15:56;99673.91;;;-5.23;91.46
63691;BME280;49837;57.280;27.070;2023-02-03T03:17:03;99672.94;;;-5.23;91.16
63691;BME280;49837;57.280;27.070;2023-02-03T03:20:10;99677.3;;;-5.14;91.37
63691;BME280;49837;57.280;27.070;2023-02-03T03:21:04;99681.61;;;-5.15;91.42
63691;BME280;49837;57.280;27.070;2023-02-03T03:22:06;99682.45;;;-5.17;91.84
63691;BME280;49837;57.280;27.070;2023-02-03T03:23:13;99679.91;;;-5.17;91.89
63691;BME280;49837;57.280;27.070;2023-02-03T03:24:10;99685.33;;;-5.12;91.9
63691;BME280;49837;57.280;27.070;2023-02-03T03:25:15;99686.69;;;-5.11;92.17
63691;BME280;49837;57.280;27.070;2023-02-03T03:27:21;99688.93;;;-5.14;93.34
63691;BME280;49837;57.280;27.070;2023-02-03T03:28:27;99690.48;;;-5.15;93.27
63691;BME280;49837;57.280;27.070;2023-02-03T03:29:25;99687.09;;;-5.14;93.39
63691;BME280;49837;57.280;27.070;2023-02-03T03:30:29;99692.94;;;-5.17;93.78
63691;BME280;49837;57.280;27.070;2023-02-03T03:31:29;99689.61;;;-5.17;93.94
63691;BME280;49837;57.280;27.070;2023-02-03T03:32:30;99692.56;;;-5.15;93.96
63691;BME280;49837;57.280;27.070;2023-02-03T03:33:30;99692.29;;;-5.1;94.02
63691;BME280;49837;57.280;27.070;2023-02-03T03:34:31;99691.94;;;-5.09;93.79
63691;BME280;49837;57.280;27.070;2023-02-03T03:36:41;99690.09;;;-5.07;93.25
63691;BME280;49837;57.280;27.070;2023-02-03T03:37:45;99693.78;;;-5.09;92.79
63691;BME280;49837;57.280;27.070;2023-02-03T03:38:49;99695.62;;;-5.1;92.98
63691;BME280;49837;57.280;27.070;2023-02-03T03:39:50;99696.19;;;-5.1;93.08
63691;BME280;49837;57.280;27.070;2023-02-03T03:40:51;99696.27;;;-5.1;93.25
63691;BME280;49837;57.280;27.070;2023-02-03T03:41:56;99691.16;;;-5.17;93.3
63691;BME280;49837;57.280;27.070;2023-02-03T03:43:02;99696.36;;;-5.17;93.56
63691;BME280;49837;57.280;27.070;2023-02-03T03:43:55;99693.64;;;-5.11;93.77
63691;BME280;49837;57.280;27.070;2023-02-03T03:49:04;99693.73;;;-5.11;94.03
63691;BME280;49837;57.280;27.070;2023-02-03T03:50:06;99697.55;;;-5.12;94.0
63691;BME280;49837;57.280;27.070;2023-02-03T03:51:18;99693.89;;;-5.15;93.78
63691;BME280;49837;57.280;27.070;2023-02-03T03:52:08;99698.28;;;-5.15;93.69
63691;BME280;49837;57.280;27.070;2023-02-03T03:53:08;99698.28;;;-5.15;93.71
63691;BME280;49837;57.280;27.070;2023-02-03T03:54:09;99697.25;;;-5.16;93.37
63691;BME280;49837;57.280;27.070;2023-02-03T03:55:09;99700.67;;;-5.17;93.56
63691;BME280;49837;57.280;27.070;2023-02-03T03:56:14;99701.12;;;-5.17;93.36
63691;BME280;49837;57.280;27.070;2023-02-03T03:57:21;99705.84;;;-5.24;93.34
63691;BME280;49837;57.280;27.070;2023-02-03T03:58:25;99702.15;;;-5.28;93.59
63691;BME280;49837;57.280;27.070;2023-02-03T03:59:21;99703.23;;;-5.21;93.67
63691;BME280;49837;57.280;27.070;2023-02-03T04:00:22;99698.09;;;-5.22;93.52
63691;BME280;49837;57.280;27.070;2023-02-03T04:01:22;99699.17;;;-5.21;93.4
63691;BME280;49837;57.280;27.070;2023-02-03T04:02:23;99699.39;;;-5.19;93.49
63691;BME280;49837;57.280;27.070;2023-02-03T04:03:27;99701.36;;;-5.27;93.45
63691;BME280;49837;57.280;27.070;2023-02-03T04:04:27;99696.73;;;-5.24;93.57
63691;BME280;49837;57.280;27.070;2023-02-03T04:05:27;99699.98;;;-5.21;93.63
63691;BME280;49837;57.280;27.070;2023-02-03T04:06:27;99700.5;;;-5.17;93.6
63691;BME280;49837;57.280;27.070;2023-02-03T04:08:30;99695.36;;;-5.12;93.47
63691;BME280;49837;57.280;27.070;2023-02-03T04:09:31;99697.93;;;-5.12;93.4
63691;BME280;49837;57.280;27.070;2023-02-03T04:10:41;99696.95;;;-5.1;93.46
63691;BME280;49837;57.280;27.070;2023-02-03T04:11:34;99699.17;;;-5.11;93.58
63691;BME280;49837;57.280;27.070;2023-02-03T04:12:35;99701.05;;;-5.14;93.67
63691;BME280;49837;57.280;27.070;2023-02-03T04:13:35;99704.65;;;-5.2;93.76
63691;BME280;49837;57.280;27.070;2023-02-03T04:14:36;99701.78;;;-5.17;93.84
63691;BME280;49837;57.280;27.070;2023-02-03T04:15:36;99706.52;;;-5.23;93.72
63691;BME280;49837;57.280;27.070;2023-02-03T04:16:36;99702.75;;;-5.27;93.68
63691;BME280;49837;57.280;27.070;2023-02-03T04:17:37;99704.45;;;-5.2;93.88
63691;BME280;49837;57.280;27.070;2023-02-03T04:18:37;99707.03;;;-5.19;93.82
63691;BME280;49837;57.280;27.070;2023-02-03T04:19:38;99709.14;;;-5.19;93.82
63691;BME280;49837;57.280;27.070;2023-02-03T04:20:38;99706.62;;;-5.22;93.88
63691;BME280;49837;57.280;27.070;2023-02-03T04:21:39;99704.59;;;-5.22;93.91
63691;BME280;49837;57.280;27.070;2023-02-03T04:22:39;99703.99;;;-5.26;93.96
63691;BME280;49837;57.280;27.070;2023-02-03T04:23:39;99705.19;;;-5.24;94.29
63691;BME280;49837;57.280;27.070;2023-02-03T04:24:40;99704.56;;;-5.23;94.37
63691;BME280;49837;57.280;27.070;2023-02-03T04:25:40;99698.8;;;-5.19;94.33
63691;BME280;49837;57.280;27.070;2023-02-03T04:26:41;99701.12;;;-5.15;94.24
63691;BME280;49837;57.280;27.070;2023-02-03T04:27:41;99700.15;;;-5.14;94.23
63691;BME280;49837;57.280;27.070;2023-02-03T04:28:42;99701.75;;;-5.15;94.21
63691;BME280;49837;57.280;27.070;2023-02-03T04:29:42;99705.35;;;-5.21;94.21
63691;BME280;49837;57.280;27.070;2023-02-03T04:30:42;99694.45;;;-5.14;94.33
63691;BME280;49837;57.280;27.070;2023-02-03T04:31:43;99695.11;;;-5.18;94.24
63691;BME280;49837;57.280;27.070;2023-02-03T04:32:44;99698.02;;;-5.16;94.26
63691;BME280;49837;57.280;27.070;2023-02-03T04:33:43;99694.22;;;-5.17;94.25
63691;BME280;49837;57.280;27.070;2023-02-03T04:34:44;99691.16;;;-5.17;94.28
63691;BME280;49837;57.280;27.070;2023-02-03T04:35:44;99693.45;;;-5.12;94.23
63691;BME280;49837;57.280;27.070;2023-02-03T04:36:45;99693.11;;;-5.08;94.18
63691;BME280;49837;57.280;27.070;2023-02-03T04:37:45;99697.12;;;-5.1;94.18
63691;BME280;49837;57.280;27.070;2023-02-03T04:38:47;99694.08;;;-5.17;94.14
63691;BME280;49837;57.280;27.070;2023-02-03T04:39:46;99696.3;;;-5.19;94.22
63691;BME280;49837;57.280;27.070;2023-02-03T04:40:46;99692.7;;;-5.2;94.29
63691;BME280;49837;57.280;27.070;2023-02-03T04:41:47;99695.95;;;-5.17;94.24
63691;BME280;49837;57.280;27.070;2023-02-03T04:42:47;99699.09;;;-5.14;94.26
63691;BME280;49837;57.280;27.070;2023-02-03T04:43:47;99700.64;;;-5.14;94.09
63691;BME280;49837;57.280;27.070;2023-02-03T04:44:48;99697.41;;;-5.13;94.06
63691;BME280;49837;57.280;27.070;2023-02-03T04:45:48;99696.71;;;-5.16;94.12
63691;BME280;49837;57.280;27.070;2023-02-03T04:46:49;99699.39;;;-5.1;93.95
63691;BME280;49837;57.280;27.070;2023-02-03T04:47:52;99697.2;;;-5.06;93.88
63691;BME280;49837;57.280;27.070;2023-02-03T04:48:50;99700.17;;;-5.07;93.77
63691;BME280;49837;57.280;27.070;2023-02-03T04:49:51;99700.18;;;-5.07;93.68
63691;BME280;49837;57.280;27.070;2023-02-03T04:50:51;99703.78;;;-5.1;93.72
63691;BME280;49837;57.280;27.070;2023-02-03T04:51:52;99704.16;;;-5.13;93.87
63691;BME280;49837;57.280;27.070;2023-02-03T04:52:52;99701.51;;;-5.09;93.94
63691;BME280;49837;57.280;27.070;2023-02-03T04:53:52;99695.46;;;-5.04;94.07
63691;BME280;49837;57.280;27.070;2023-02-03T04:54:53;99695.35;;;-5.01;94.04
63691;BME280;49837;57.280;27.070;2023-02-03T04:55:53;99701.2;;;-4.99;94.14
63691;BME280;49837;57.280;27.070;2023-02-03T04:56:54;99702.02;;;-4.99;94.22
63691;BME280;49837;57.280;27.070;2023-02-03T04:57:58;99706.22;;;-4.97;94.47
63691;BME280;49837;57.280;27.070;2023-02-03T04:58:56;99703.4;;;-4.95;94.11
63691;BME280;49837;57.280;27.070;2023-02-03T04:59:56;99705.03;;;-4.96;93.92
63691;BME280;49837;57.280;27.070;2023-02-03T05:00:56;99703.0;;;-5.05;93.75
63691;BME280;49837;57.280;27.070;2023-02-03T05:01:57;99703.27;;;-5.04;93.75
63691;BME280;49837;57.280;27.070;2023-02-03T05:02:57;99710.2;;;-5.0;93.97
63691;BME280;49837;57.280;27.070;2023-02-03T05:03:58;99709.75;;;-4.96;94.19
63691;BME280;49837;57.280;27.070;2023-02-03T05:04:58;99707.95;;;-4.89;94.33
63691;BME280;49837;57.280;27.070;2023-02-03T05:05:58;99708.03;;;-4.92;94.0
63691;BME280;49837;57.280;27.070;2023-02-03T05:06:59;99705.55;;;-4.94;93.96
63691;BME280;49837;57.280;27.070;2023-02-03T05:07:59;99706.52;;;-4.97;93.67
63691;BME280;49837;57.280;27.070;2023-02-03T05:09:00;99711.2;;;-4.95;93.63
63691;BME280;49837;57.280;27.070;2023-02-03T05:10:00;99710.91;;;-5.01;93.71
63691;BME280;49837;57.280;27.070;2023-02-03T05:11:00;99712.62;;;-4.98;93.85
63691;BME280;49837;57.280;27.070;2023-02-03T05:12:01;99714.66;;;-4.98;93.8
63691;BME280;49837;57.280;27.070;2023-02-03T05:13:01;99711.16;;;-5.0;93.7
63691;BME280;49837;57.280;27.070;2023-02-03T05:14:02;99708.45;;;-4.96;93.67
63691;BME280;49837;57.280;27.070;2023-02-03T05:15:02;99709.82;;;-4.89;93.5
63691;BME280;49837;57.280;27.070;2023-02-03T05:16:03;99711.31;;;-4.88;93.37
63691;BME280;49837;57.280;27.070;2023-02-03T05:17:03;99713.38;;;-4.91;93.57
63691;BME280;49837;57.280;27.070;2023-02-03T05:18:03;99705.66;;;-4.96;93.44
63691;BME280;49837;57.280;27.070;2023-02-03T05:19:04;99711.86;;;-5.02;93.33
63691;BME280;49837;57.280;27.070;2023-02-03T05:20:05;99706.41;;;-5.01;93.37
63691;BME280;49837;57.280;27.070;2023-02-03T05:21:05;99709.91;;;-4.92;93.42
63691;BME280;49837;57.280;27.070;2023-02-03T05:22:05;99709.39;;;-4.93;93.21
63691;BME280;49837;57.280;27.070;2023-02-03T05:23:05;99708.77;;;-4.92;93.16
63691;BME280;49837;57.280;27.070;2023-02-03T05:24:06;99707.8;;;-4.96;93.2
63691;BME280;49837;57.280;27.070;2023-02-03T05:25:07;99705.33;;;-4.94;93.34
63691;BME280;49837;57.280;27.070;2023-02-03T05:26:07;99709.94;;;-4.94;93.16
63691;BME280;49837;57.280;27.070;2023-02-03T05:27:07;99711.09;;;-4.93;93.19
63691;BME280;49837;57.280;27.070;2023-02-03T05:28:07;99711.94;;;-4.89;93.34
63691;BME280;49837;57.280;27.070;2023-02-03T05:29:08;99711.12;;;-4.92;93.27
63691;BME280;49837;57.280;27.070;2023-02-03T05:30:09;99713.67;;;-4.94;93.32
63691;BME280;49837;57.280;27.070;2023-02-03T05:31:09;99709.28;;;-4.92;93.26
63691;BME280;49837;57.280;27.070;2023-02-03T05:32:09;99713.64;;;-4.95;93.23
63691;BME280;49837;57.280;27.070;2023-02-03T05:33:09;99710.72;;;-4.96;93.4
63691;BME280;49837;57.280;27.070;2023-02-03T05:34:11;99710.09;;;-4.94;93.51
63691;BME280;49837;57.280;27.070;2023-02-03T05:35:11;99710.34;;;-4.95;93.39
63691;BME280;49837;57.280;27.070;2023-02-03T05:36:11;99710.66;;;-4.85;93.4
63691;BME280;49837;57.280;27.070;2023-02-03T05:37:12;99713.07;;;-4.83;93.27
63691;BME280;49837;57.280;27.070;2023-02-03T05:38:12;99709.52;;;-4.85;93.12
63691;BME280;49837;57.280;27.070;2023-02-03T05:39:13;99707.92;;;-4.83;93.32
63691;BME280;49837;57.280;27.070;2023-02-03T05:40:13;99710.77;;;-4.87;93.16
63691;BME280;49837;57.280;27.070;2023-02-03T05:41:13;99711.83;;;-4.9;93.31
63691;BME280;49837;57.280;27.070;2023-02-03T05:42:14;99706.05;;;-4.87;93.79
63691;BME280;49837;57.280;27.070;2023-02-03T05:43:14;99707.24;;;-4.85;93.76
63691;BME280;49837;57.280;27.070;2023-02-03T05:44:15;99708.0;;;-4.83;93.73
63691;BME280;49837;57.280;27.070;2023-02-03T05:45:15;99707.94;;;-4.77;93.76
63691;BME280;49837;57.280;27.070;2023-02-03T05:46:15;99712.73;;;-4.73;93.7
63691;BME280;49837;57.280;27.070;2023-02-03T05:47:17;99711.73;;;-4.77;93.56
63691;BME280;49837;57.280;27.070;2023-02-03T05:48:16;99712.83;;;-4.82;93.61
63691;BME280;49837;57.280;27.070;2023-02-03T05:49:17;99713.84;;;-4.85;93.64
63691;BME280;49837;57.280;27.070;2023-02-03T05:50:17;99719.02;;;-4.86;93.72
63691;BME280;49837;57.280;27.070;2023-02-03T05:51:17;99715.38;;;-4.85;93.81
63691;BME280;49837;57.280;27.070;2023-02-03T05:52:18;99717.84;;;-4.8;93.89
63691;BME280;49837;57.280;27.070;2023-02-03T05:53:18;99717.92;;;-4.83;93.81
63691;BME280;49837;57.280;27.070;2023-02-03T05:54:19;99720.26;;;-4.79;93.94
63691;BME280;49837;57.280;27.070;2023-02-03T05:55:19;99720.55;;;-4.79;94.13
63691;BME280;49837;57.280;27.070;2023-02-03T05:56:20;99721.61;;;-4.77;94.26
63691;BME280;49837;57.280;27.070;2023-02-03T05:57:20;99723.94;;;-4.78;94.1
63691;BME280;49837;57.280;27.070;2023-02-03T05:58:20;99720.91;;;-4.81;94.08
63691;BME280;49837;57.280;27.070;2023-02-03T05:59:21;99720.98;;;-4.75;94.35
63691;BME280;49837;57.280;27.070;2023-02-03T06:00:21;99721.82;;;-4.74;94.29
63691;BME280;49837;57.280;27.070;2023-02-03T06:01:22;99724.95;;;-4.77;94.33